sensor_id;sensor_type;location;lat;lon;timestamp;temperature;humidity
39345;DHT22;25061;51.954;6.996;2023-02-23T00:01:27;8.40;99.90
39345;DHT22;25061;51.954;6.996;2023-02-23T00:03:57;8.50;99.90
39345;DHT22;25061;51.954;6.996;2023-02-23T00:06:25;8.50;99.90
39345;DHT22;25061;51.954;6.996;2023-02-23T00:08:51;8.40;99.90
39345;DHT22;25061;51.954;6.996;2023-02-23T00:11:18;8.40;99.90
39345;DHT22;25061;51.954;6.996;2023-02-23T00:13:46;8.40;99.90
39345;DHT22;25061;51.954;6.996;2023-02-23T00:16:17;8.40;99.90
39345;DHT22;25061;51.954;6.996;2023-02-23T00:18:52;8.50;99.90
39345;DHT22;25061;51.954;6.996;2023-02-23T00:21:19;8.40;99.90
39345;DHT22;25061;51.954;6.996;2023-02-23T00:23:50;8.40;99.90
39345;DHT22;25061;51.954;6.996;2023-02-23T00:26:18;8.40;99.90
39345;DHT22;25061;51.954;6.996;2023-02-23T00:28:46;8.40;99.90
39345;DHT22;25061;51.954;6.996;2023-02-23T00:31:12;8.40;99.90
39345;DHT22;25061;51.954;6.996;2023-02-23T00:33:38;8.40;99.90
39345;DHT22;25061;51.954;6.996;2023-02-23T00:36:06;8.40;99.90
39345;DHT22;25061;51.954;6.996;2023-02-23T00:38:33;8.40;99.90
39345;DHT22;25061;51.954;6.996;2023-02-23T00:41:10;8.40;99.90
39345;DHT22;25061;51.954;6.996;2023-02-23T00:43:38;8.30;99.90
39345;DHT22;25061;51.954;6.996;2023-02-23T00:46:15;8.30;99.90
39345;DHT22;25061;51.954;6.996;2023-02-23T00:48:42;8.30;99.90
39345;DHT22;25061;51.954;6.996;2023-02-23T00:51:08;8.30;99.90
39345;DHT22;25061;51.954;6.996;2023-02-23T00:53:34;8.30;99.90
39345;DHT22;25061;51.954;6.996;2023-02-23T00:56:00;8.30;99.90
39345;DHT22;25061;51.954;6.996;2023-02-23T00:58:29;8.40;99.90
39345;DHT22;25061;51.954;6.996;2023-02-23T01:00:56;8.40;99.90
39345;DHT22;25061;51.954;6.996;2023-02-23T01:03:27;8.30;99.90
39345;DHT22;25061;51.954;6.996;2023-02-23T01:05:53;8.30;99.90
39345;DHT22;25061;51.954;6.996;2023-02-23T01:08:20;8.40;99.90
39345;DHT22;25061;51.954;6.996;2023-02-23T01:10:48;8.40;99.90
39345;DHT22;25061;51.954;6.996;2023-02-23T01:13:21;8.30;99.90
39345;DHT22;25061;51.954;6.996;2023-02-23T01:15:47;8.30;99.90
39345;DHT22;25061;51.954;6.996;2023-02-23T01:18:15;8.30;99.90
39345;DHT22;25061;51.954;6.996;2023-02-23T01:20:42;8.30;99.90
39345;DHT22;25061;51.954;6.996;2023-02-23T01:23:10;8.30;99.90
39345;DHT22;25061;51.954;6.996;2023-02-23T01:25:37;8.30;99.90
39345;DHT22;25061;51.954;6.996;2023-02-23T01:28:03;8.30;99.90
39345;DHT22;25061;51.954;6.996;2023-02-23T01:30:28;8.20;99.90
39345;DHT22;25061;51.954;6.996;2023-02-23T01:32:54;8.30;99.90
39345;DHT22;25061;51.954;6.996;2023-02-23T01:35:20;8.20;99.90
39345;DHT22;25061;51.954;6.996;2023-02-23T01:37:45;8.30;99.90
39345;DHT22;25061;51.954;6.996;2023-02-23T01:40:14;8.20;99.90
39345;DHT22;25061;51.954;6.996;2023-02-23T01:42:45;8.30;99.90
39345;DHT22;25061;51.954;6.996;2023-02-23T01:45:31;8.20;99.90
39345;DHT22;25061;51.954;6.996;2023-02-23T01:48:03;8.30;99.90
39345;DHT22;25061;51.954;6.996;2023-02-23T01:50:42;8.30;99.90
39345;DHT22;25061;51.954;6.996;2023-02-23T01:53:09;8.30;99.90
39345;DHT22;25061;51.954;6.996;2023-02-23T01:55:35;8.30;99.90
39345;DHT22;25061;51.954;6.996;2023-02-23T01:58:08;8.30;99.90
39345;DHT22;25061;51.954;6.996;2023-02-23T02:00:43;8.20;99.90
39345;DHT22;25061;51.954;6.996;2023-02-23T02:03:18;8.10;99.90
39345;DHT22;25061;51.954;6.996;2023-02-23T02:05:49;8.10;99.90
39345;DHT22;25061;51.954;6.996;2023-02-23T02:08:15;8.10;99.90
39345;DHT22;25061;51.954;6.996;2023-02-23T02:10:43;8.20;99.90
39345;DHT22;25061;51.954;6.996;2023-02-23T02:13:15;8.20;99.90
39345;DHT22;25061;51.954;6.996;2023-02-23T02:15:46;8.20;99.90
39345;DHT22;25061;51.954;6.996;2023-02-23T02:18:37;8.20;99.90
39345;DHT22;25061;51.954;6.996;2023-02-23T02:24:01;8.20;99.90
39345;DHT22;25061;51.954;6.996;2023-02-23T02:40:16;8.20;99.90
39345;DHT22;25061;51.954;6.996;2023-02-23T02:43:06;8.10;99.90
39345;DHT22;25061;51.954;6.996;2023-02-23T02:45:42;8.10;99.90
39345;DHT22;25061;51.954;6.996;2023-02-23T02:51:09;8.00;99.90
39345;DHT22;25061;51.954;6.996;2023-02-23T02:53:50;8.10;99.90
39345;DHT22;25061;51.954;6.996;2023-02-23T02:56:17;8.10;99.90
39345;DHT22;25061;51.954;6.996;2023-02-23T02:58:44;8.00;99.90
39345;DHT22;25061;51.954;6.996;2023-02-23T03:01:15;8.10;99.90
39345;DHT22;25061;51.954;6.996;2023-02-23T03:04:21;8.10;99.90
39345;DHT22;25061;51.954;6.996;2023-02-23T03:07:32;8.00;99.90
39345;DHT22;25061;51.954;6.996;2023-02-23T03:10:33;8.00;99.90
39345;DHT22;25061;51.954;6.996;2023-02-23T03:16:20;8.10;99.90
39345;DHT22;25061;51.954;6.996;2023-02-23T03:19:36;8.00;99.90
39345;DHT22;25061;51.954;6.996;2023-02-23T03:22:52;8.10;99.90
39345;DHT22;25061;51.954;6.996;2023-02-23T03:26:01;8.10;99.90
39345;DHT22;25061;51.954;6.996;2023-02-23T03:29:24;8.10;99.90
39345;DHT22;25061;51.954;6.996;2023-02-23T03:32:31;8.00;99.90
39345;DHT22;25061;51.954;6.996;2023-02-23T03:35:24;8.10;99.90
39345;DHT22;25061;51.954;6.996;2023-02-23T03:38:25;8.10;99.90
39345;DHT22;25061;51.954;6.996;2023-02-23T03:41:14;7.90;99.90
39345;DHT22;25061;51.954;6.996;2023-02-23T03:44:04;7.90;99.90
39345;DHT22;25061;51.954;6.996;2023-02-23T03:46:51;7.90;99.90
39345;DHT22;25061;51.954;6.996;2023-02-23T03:49:38;8.10;99.90
39345;DHT22;25061;51.954;6.996;2023-02-23T03:52:47;8.10;99.90
39345;DHT22;25061;51.954;6.996;2023-02-23T03:55:35;8.00;99.90
39345;DHT22;25061;51.954;6.996;2023-02-23T03:58:31;8.00;99.90
39345;DHT22;25061;51.954;6.996;2023-02-23T04:01:17;7.90;99.90
39345;DHT22;25061;51.954;6.996;2023-02-23T04:04:03;7.90;99.90
39345;DHT22;25061;51.954;6.996;2023-02-23T04:06:49;8.00;99.90
39345;DHT22;25061;51.954;6.996;2023-02-23T04:09:35;8.00;99.90
39345;DHT22;25061;51.954;6.996;2023-02-23T04:12:37;7.90;99.90
39345;DHT22;25061;51.954;6.996;2023-02-23T04:16:09;8.00;99.90
39345;DHT22;25061;51.954;6.996;2023-02-23T04:18:35;8.00;99.90
39345;DHT22;25061;51.954;6.996;2023-02-23T04:21:02;8.00;99.90
39345;DHT22;25061;51.954;6.996;2023-02-23T04:23:28;8.00;99.90
39345;DHT22;25061;51.954;6.996;2023-02-23T04:25:54;8.00;99.90
39345;DHT22;25061;51.954;6.996;2023-02-23T04:28:21;8.00;99.90
39345;DHT22;25061;51.954;6.996;2023-02-23T04:30:47;7.80;99.90
39345;DHT22;25061;51.954;6.996;2023-02-23T04:33:13;7.90;99.90
39345;DHT22;25061;51.954;6.996;2023-02-23T04:35:39;7.90;99.90
39345;DHT22;25061;51.954;6.996;2023-02-23T04:38:04;7.90;99.90
39345;DHT22;25061;51.954;6.996;2023-02-23T04:40:30;7.90;99.90
39345;DHT22;25061;51.954;6.996;2023-02-23T04:42:56;7.90;99.90
39345;DHT22;25061;51.954;6.996;2023-02-23T04:45:22;7.80;99.90
39345;DHT22;25061;51.954;6.996;2023-02-23T04:47:48;7.80;99.90
39345;DHT22;25061;51.954;6.996;2023-02-23T04:50:14;7.80;99.90
39345;DHT22;25061;51.954;6.996;2023-02-23T04:52:40;7.80;99.90
39345;DHT22;25061;51.954;6.996;2023-02-23T04:55:06;7.90;99.90
39345;DHT22;25061;51.954;6.996;2023-02-23T04:57:33;7.80;99.90
39345;DHT22;25061;51.954;6.996;2023-02-23T05:00:00;7.70;99.90
39345;DHT22;25061;51.954;6.996;2023-02-23T05:02:26;7.80;99.90
39345;DHT22;25061;51.954;6.996;2023-02-23T05:04:52;7.80;99.90
39345;DHT22;25061;51.954;6.996;2023-02-23T05:07:17;7.80;99.90
39345;DHT22;25061;51.954;6.996;2023-02-23T05:09:43;7.80;99.90
39345;DHT22;25061;51.954;6.996;2023-02-23T05:12:08;7.70;99.90
39345;DHT22;25061;51.954;6.996;2023-02-23T05:14:34;7.70;99.90
39345;DHT22;25061;51.954;6.996;2023-02-23T05:17:00;7.80;99.90
39345;DHT22;25061;51.954;6.996;2023-02-23T05:19:25;7.80;99.90
39345;DHT22;25061;51.954;6.996;2023-02-23T05:21:51;7.70;99.90
39345;DHT22;25061;51.954;6.996;2023-02-23T05:24:17;7.80;99.90
39345;DHT22;25061;51.954;6.996;2023-02-23T05:26:43;7.80;99.90
39345;DHT22;25061;51.954;6.996;2023-02-23T05:29:09;7.80;99.90
39345;DHT22;25061;51.954;6.996;2023-02-23T05:31:35;7.70;99.90
39345;DHT22;25061;51.954;6.996;2023-02-23T05:34:00;7.80;99.90
39345;DHT22;25061;51.954;6.996;2023-02-23T05:36:26;7.60;99.90
39345;DHT22;25061;51.954;6.996;2023-02-23T05:38:52;7.60;99.90
39345;DHT22;25061;51.954;6.996;2023-02-23T05:41:19;7.70;99.90
39345;DHT22;25061;51.954;6.996;2023-02-23T05:43:45;7.70;99.90
39345;DHT22;25061;51.954;6.996;2023-02-23T05:46:14;7.60;99.90
39345;DHT22;25061;51.954;6.996;2023-02-23T05:48:40;7.60;99.90
39345;DHT22;25061;51.954;6.996;2023-02-23T05:51:08;7.70;99.90
39345;DHT22;25061;51.954;6.996;2023-02-23T05:53:35;7.70;99.90
39345;DHT22;25061;51.954;6.996;2023-02-23T05:56:02;7.70;99.90
